createdAt,value
2023-03-29T00:00:14.542Z,99985.75
2023-03-29T00:02:48.586Z,100004.19
2023-03-29T00:05:18.956Z,100002.31
2023-03-29T00:07:46.641Z,100008.41
2023-03-29T00:10:14.006Z,100019.56
2023-03-29T00:12:42.031Z,100022.16
2023-03-29T00:15:10.066Z,100030.84
2023-03-29T00:17:37.823Z,100039.50
2023-03-29T00:20:12.516Z,100051.72
2023-03-29T00:22:44.678Z,100067.44
2023-03-29T00:25:13.479Z,100082.28
2023-03-29T00:27:41.305Z,100072.56
2023-03-29T00:30:10.330Z,100088.38
2023-03-29T00:32:38.778Z,100097.19
2023-03-29T00:35:06.465Z,100088.50
2023-03-29T00:37:34.093Z,100082.28
2023-03-29T00:40:01.729Z,100086.56
2023-03-29T00:42:30.363Z,100085.75
2023-03-29T00:45:00.645Z,100088.31
2023-03-29T00:47:47.197Z,100100.47
2023-03-29T00:50:29.779Z,100106.56
2023-03-29T00:53:27.537Z,100122.34
2023-03-29T00:56:06.473Z,100118.84
2023-03-29T00:58:49.697Z,100119.69
2023-03-29T01:01:46.139Z,100123.19
2023-03-29T01:04:47.637Z,100119.63
2023-03-29T01:07:42.210Z,100116.09
2023-03-29T01:10:16.266Z,100116.94
2023-03-29T01:12:54.446Z,100108.16
2023-03-29T01:15:26.547Z,100109.03
2023-03-29T01:17:55.803Z,100108.03
2023-03-29T01:20:43.455Z,100117.63
2023-03-29T01:23:38.519Z,100123.75
2023-03-29T01:26:21.903Z,100139.53
2023-03-29T01:29:08.759Z,100138.66
2023-03-29T01:31:44.946Z,100147.28
2023-03-29T01:34:32.046Z,100160.38
2023-03-29T01:37:24.699Z,100162.16
2023-03-29T01:39:53.043Z,100178.75
2023-03-29T01:42:28.454Z,100181.34
2023-03-29T01:45:17.198Z,100179.63
2023-03-29T01:48:27.045Z,100195.34
2023-03-29T01:51:23.092Z,100199.78
2023-03-29T01:54:13.359Z,100192.75
2023-03-29T01:56:44.143Z,100205.91
2023-03-29T01:59:16.159Z,100212.00
2023-03-29T02:01:49.902Z,100207.56
2023-03-29T02:04:31.754Z,100211.13
2023-03-29T02:07:02.283Z,100220.69
2023-03-29T02:09:30.764Z,100216.25
2023-03-29T02:12:01.046Z,100218.91
2023-03-29T02:14:30.432Z,100212.66
2023-03-29T02:17:09.223Z,100215.19
2023-03-29T02:19:36.701Z,100220.53
2023-03-29T02:22:10.370Z,100218.81
2023-03-29T02:24:39.368Z,100217.69
2023-03-29T02:27:06.750Z,100218.47
2023-03-29T02:29:34.115Z,100211.25
2023-03-29T02:32:15.942Z,100203.47
2023-03-29T02:34:53.396Z,100201.44
2023-03-29T02:37:24.404Z,100189.84
2023-03-29T02:39:52.542Z,100194.00
2023-03-29T02:42:20.623Z,100206.06
2023-03-29T02:44:53.066Z,100203.31
2023-03-29T02:47:35.723Z,100212.94
2023-03-29T02:50:03.330Z,100209.44
2023-03-29T02:52:39.337Z,100225.03
2023-03-29T02:55:15.029Z,100232.47
2023-03-29T02:57:43.985Z,100231.63
2023-03-29T03:00:14.654Z,100231.56
2023-03-29T03:02:42.920Z,100227.25
2023-03-29T03:05:10.458Z,100226.53
2023-03-29T03:07:40.590Z,100224.72
2023-03-29T03:10:10.333Z,100231.84
2023-03-29T03:12:37.942Z,100233.19
2023-03-29T03:15:06.609Z,100239.09
2023-03-29T03:17:34.013Z,100254.44
2023-03-29T03:20:01.388Z,100269.97
2023-03-29T03:22:28.695Z,100286.34
2023-03-29T03:24:56.122Z,100290.91
2023-03-29T03:27:23.449Z,100294.19
2023-03-29T03:29:50.761Z,100293.72
2023-03-29T03:32:18.561Z,100311.97
2023-03-29T03:34:45.898Z,100318.88
2023-03-29T03:37:13.260Z,100298.13
2023-03-29T03:39:40.662Z,100305.94
2023-03-29T03:42:08.537Z,100310.22
2023-03-29T03:44:36.554Z,100310.19
2023-03-29T03:47:05.773Z,100299.25
2023-03-29T03:49:33.164Z,100306.97
2023-03-29T03:52:00.459Z,100309.03
2023-03-29T03:54:28.078Z,100306.56
2023-03-29T03:56:55.487Z,100318.56
2023-03-29T03:59:22.941Z,100332.56
2023-03-29T04:01:50.590Z,100337.75
2023-03-29T04:04:21.716Z,100328.00
2023-03-29T04:06:50.589Z,100336.69
2023-03-29T04:09:18.177Z,100352.50
2023-03-29T04:11:45.564Z,100351.50
2023-03-29T04:14:12.908Z,100358.28
2023-03-29T04:16:40.336Z,100359.78
2023-03-29T04:19:07.654Z,100368.53
2023-03-29T04:21:35.086Z,100366.59
2023-03-29T04:24:02.396Z,100369.06
2023-03-29T04:26:29.804Z,100371.53
2023-03-29T04:29:29.486Z,100373.06
2023-03-29T04:31:56.852Z,100380.84
2023-03-29T04:34:24.262Z,100380.63
2023-03-29T04:36:51.770Z,100383.88
2023-03-29T04:39:19.327Z,100394.16
2023-03-29T04:41:55.957Z,100404.25
2023-03-29T04:44:23.276Z,100399.63
2023-03-29T04:46:50.767Z,100406.63
2023-03-29T04:49:18.282Z,100414.19
2023-03-29T04:51:45.858Z,100418.53
2023-03-29T04:54:13.328Z,100416.47
2023-03-29T04:56:40.785Z,100413.69
2023-03-29T04:59:10.583Z,100413.47
2023-03-29T05:01:38.815Z,100414.00
2023-03-29T05:04:14.081Z,100421.78
2023-03-29T05:06:42.051Z,100420.66
2023-03-29T05:09:12.909Z,100425.16
2023-03-29T05:11:40.370Z,100434.25
2023-03-29T05:14:09.370Z,100436.16
2023-03-29T05:16:52.545Z,100439.78
2023-03-29T05:19:21.899Z,100437.50
2023-03-29T05:21:50.999Z,100439.78
2023-03-29T05:24:18.478Z,100425.88
2023-03-29T05:26:47.696Z,100432.88
2023-03-29T05:29:15.394Z,100426.53
2023-03-29T05:31:43.086Z,100434.19
2023-03-29T05:34:10.904Z,100439.53
2023-03-29T05:36:39.176Z,100440.38
2023-03-29T05:39:06.943Z,100450.00
2023-03-29T05:41:34.672Z,100453.63
2023-03-29T05:44:02.616Z,100454.50
2023-03-29T05:46:30.176Z,100468.56
2023-03-29T05:48:57.706Z,100477.31
2023-03-29T05:51:25.340Z,100478.72
2023-03-29T05:53:52.774Z,100488.41
2023-03-29T05:56:20.713Z,100497.44
2023-03-29T05:58:49.393Z,100503.56
2023-03-29T06:01:20.045Z,100515.03
2023-03-29T06:03:47.704Z,100510.94
2023-03-29T06:06:16.746Z,100531.25
2023-03-29T06:08:45.032Z,100529.94
2023-03-29T06:11:13.532Z,100546.50
2023-03-29T06:13:42.291Z,100559.34
2023-03-29T06:16:11.590Z,100553.50
2023-03-29T06:18:40.358Z,100552.13
2023-03-29T06:21:09.398Z,100564.91
2023-03-29T06:23:37.195Z,100550.03
2023-03-29T06:26:05.933Z,100550.44
2023-03-29T06:28:33.390Z,100549.81
2023-03-29T06:31:03.282Z,100539.66
2023-03-29T06:33:32.387Z,100537.41
2023-03-29T06:38:41.699Z,100554.38
2023-03-29T06:41:11.361Z,100559.91
2023-03-29T06:43:38.948Z,100559.44
2023-03-29T06:46:12.044Z,100566.72
2023-03-29T06:48:41.021Z,100562.47
2023-03-29T06:51:08.720Z,100559.03
2023-03-29T06:53:36.727Z,100562.00
2023-03-29T06:56:09.353Z,100553.25
2023-03-29T06:58:37.227Z,100540.38
2023-03-29T07:01:05.192Z,100548.47
2023-03-29T07:03:35.055Z,100544.91
2023-03-29T07:06:09.761Z,100546.94
2023-03-29T07:08:43.519Z,100550.69
2023-03-29T07:11:15.142Z,100562.44
2023-03-29T07:13:43.768Z,100560.13
2023-03-29T07:16:14.212Z,100564.72
2023-03-29T07:18:44.764Z,100580.13
2023-03-29T07:21:13.440Z,100582.22
2023-03-29T07:23:41.096Z,100578.38
2023-03-29T07:26:08.788Z,100583.28
2023-03-29T07:28:37.634Z,100581.88
2023-03-29T07:31:11.202Z,100570.56
2023-03-29T07:33:39.357Z,100555.06
2023-03-29T07:36:07.203Z,100564.16
2023-03-29T07:38:34.913Z,100554.03
2023-03-29T07:41:06.024Z,100538.47
2023-03-29T07:43:34.240Z,100545.00
2023-03-29T07:46:04.878Z,100541.69
2023-03-29T07:48:32.976Z,100534.28
2023-03-29T07:51:01.229Z,100526.59
2023-03-29T07:53:29.832Z,100530.41
2023-03-29T07:55:58.115Z,100519.97
2023-03-29T07:58:25.474Z,100509.72
2023-03-29T08:00:53.195Z,100513.41
2023-03-29T08:03:20.886Z,100511.78
2023-03-29T08:05:48.629Z,100512.22
2023-03-29T08:08:16.126Z,100494.75
2023-03-29T08:10:45.238Z,100475.47
2023-03-29T08:13:12.712Z,100482.72
2023-03-29T08:15:42.317Z,100469.53
2023-03-29T08:18:09.724Z,100472.44
2023-03-29T08:20:37.313Z,100477.09
2023-03-29T08:23:04.792Z,100467.66
2023-03-29T08:25:31.984Z,100461.59
2023-03-29T08:27:59.368Z,100453.88
2023-03-29T08:30:27.119Z,100450.63
2023-03-29T08:32:55.411Z,100445.38
2023-03-29T08:35:23.189Z,100443.03
2023-03-29T08:37:50.268Z,100422.72
2023-03-29T08:40:22.926Z,100398.16
2023-03-29T08:42:50.375Z,100409.91
2023-03-29T08:45:40.805Z,100396.72
2023-03-29T08:48:35.109Z,100380.03
2023-03-29T08:51:16.801Z,100377.72
2023-03-29T08:54:12.649Z,100360.16
2023-03-29T08:56:43.383Z,100351.47
2023-03-29T08:59:26.613Z,100332.16
2023-03-29T09:01:58.046Z,100296.03
2023-03-29T09:04:32.002Z,100329.78
2023-03-29T09:06:59.656Z,100309.50
2023-03-29T09:09:33.188Z,100306.06
2023-03-29T09:12:27.184Z,100325.63
2023-03-29T09:15:09.646Z,100291.22
2023-03-29T09:17:53.318Z,100238.28
2023-03-29T09:20:42.310Z,100259.59
2023-03-29T09:23:36.046Z,100223.34
2023-03-29T09:26:28.515Z,100208.34
2023-03-29T09:29:30.316Z,100220.69
2023-03-29T09:31:57.790Z,100219.78
2023-03-29T09:34:40.043Z,100248.03
2023-03-29T09:37:21.889Z,100166.75
2023-03-29T09:39:53.293Z,100165.84
2023-03-29T09:42:21.033Z,100128.63
2023-03-29T09:44:53.691Z,100094.06
2023-03-29T09:47:40.764Z,100043.66
2023-03-29T09:50:39.713Z,100109.06
2023-03-29T09:53:08.803Z,100078.06
2023-03-29T09:55:37.475Z,100072.75
2023-03-29T09:58:27.589Z,99995.78
2023-03-29T10:00:59.664Z,99884.47
2023-03-29T10:03:31.084Z,99867.59
2023-03-29T10:06:01.698Z,99856.16
2023-03-29T10:08:39.293Z,99856.16
2023-03-29T10:11:30.396Z,99906.28
2023-03-29T10:14:17.015Z,99852.31
2023-03-29T10:16:46.215Z,99889.38
2023-03-29T10:19:36.776Z,99919.19
2023-03-29T10:22:16.335Z,99872.22
2023-03-29T10:24:50.183Z,99899.25
2023-03-29T10:27:23.480Z,99854.72
2023-03-29T10:29:51.782Z,99842.88
2023-03-29T10:32:34.238Z,99862.78
2023-03-29T10:35:17.264Z,99805.13
2023-03-29T10:37:49.613Z,99715.78
2023-03-29T10:40:44.080Z,99729.69
2023-03-29T10:43:18.191Z,99756.59
2023-03-29T10:45:50.330Z,99673.44
2023-03-29T10:48:19.372Z,99721.91
2023-03-29T10:50:53.302Z,99721.25
2023-03-29T10:53:29.472Z,99693.59
2023-03-29T10:56:32.098Z,99743.63
2023-03-29T10:59:29.636Z,99720.38
2023-03-29T11:02:15.236Z,99634.63
2023-03-29T11:05:24.654Z,99678.19
2023-03-29T11:08:17.778Z,99547.38
2023-03-29T11:11:12.577Z,99475.31
2023-03-29T11:14:23.262Z,99560.84
2023-03-29T11:17:24.150Z,99548.53
2023-03-29T11:20:05.818Z,99502.97
2023-03-29T11:22:48.515Z,99530.25
2023-03-29T11:25:33.497Z,99494.66
2023-03-29T11:28:19.064Z,99418.69
2023-03-29T11:30:56.254Z,99462.22
2023-03-29T11:33:34.835Z,99442.53
2023-03-29T11:36:17.717Z,99435.97
2023-03-29T11:39:15.331Z,99281.81
2023-03-29T11:41:47.491Z,99341.72
2023-03-29T11:44:23.496Z,99338.28
2023-03-29T11:47:04.875Z,99280.66
2023-03-29T11:49:54.608Z,99259.50
2023-03-29T11:52:50.791Z,99259.69
2023-03-29T11:55:28.060Z,99172.28
2023-03-29T11:58:02.622Z,99202.34
2023-03-29T12:00:39.867Z,99280.09
2023-03-29T12:03:46.895Z,99195.16
2023-03-29T12:06:50.765Z,99181.06
2023-03-29T12:09:37.720Z,99114.38
2023-03-29T12:12:35.214Z,99220.31
2023-03-29T12:15:07.193Z,99038.13
2023-03-29T12:17:47.470Z,99027.56
2023-03-29T12:20:23.452Z,99020.94
2023-03-29T12:22:51.810Z,99003.69
2023-03-29T12:25:32.039Z,98996.97
2023-03-29T12:28:23.452Z,99031.44
2023-03-29T12:31:25.115Z,99055.31
2023-03-29T12:34:35.086Z,98906.25
2023-03-29T12:37:20.859Z,98873.22
2023-03-29T12:39:50.319Z,98856.09
2023-03-29T12:42:21.295Z,98973.75
2023-03-29T12:44:59.057Z,98874.91
2023-03-29T12:47:33.796Z,98888.06
2023-03-29T12:50:01.811Z,98904.13
2023-03-29T12:52:36.417Z,98941.09
2023-03-29T12:55:30.767Z,98837.28
2023-03-29T12:58:05.978Z,98889.25
2023-03-29T13:00:45.579Z,98890.09
2023-03-29T13:03:27.224Z,98840.28
2023-03-29T13:06:05.283Z,98831.81
2023-03-29T13:08:44.461Z,98830.16
2023-03-29T13:11:54.941Z,98845.34
2023-03-29T13:14:29.983Z,98878.44
2023-03-29T13:17:18.473Z,98844.63
2023-03-29T13:20:10.890Z,98845.25
2023-03-29T13:23:36.895Z,98803.22
2023-03-29T13:26:52.794Z,98794.66
2023-03-29T13:29:42.756Z,98827.25
2023-03-29T13:32:46.533Z,98811.66
2023-03-29T13:35:41.777Z,98796.91
2023-03-29T13:38:23.174Z,98890.75
2023-03-29T13:40:53.116Z,98879.78
2023-03-29T13:43:22.238Z,98880.28
2023-03-29T13:45:57.948Z,98898.03
2023-03-29T13:48:49.051Z,98860.16
2023-03-29T13:51:19.051Z,98889.28
2023-03-29T13:54:16.151Z,98795.78
2023-03-29T13:57:09.320Z,98796.44
2023-03-29T14:00:16.192Z,98744.88
2023-03-29T14:02:57.434Z,98782.44
2023-03-29T14:05:49.484Z,98881.41
2023-03-29T14:08:27.013Z,98817.75
2023-03-29T14:10:55.355Z,98828.78
2023-03-29T14:13:25.181Z,98871.84
2023-03-29T14:15:58.755Z,98895.69
2023-03-29T14:18:29.447Z,98870.72
2023-03-29T14:20:56.788Z,98934.09
2023-03-29T14:23:31.891Z,98920.22
2023-03-29T14:26:19.775Z,98924.66
2023-03-29T14:28:53.018Z,98931.84
2023-03-29T14:31:31.021Z,98954.97
2023-03-29T14:34:01.016Z,98990.97
2023-03-29T14:36:30.117Z,98989.50
2023-03-29T14:39:15.553Z,99009.06
2023-03-29T14:41:52.031Z,99039.16
2023-03-29T14:44:21.891Z,99066.16
2023-03-29T14:46:49.313Z,99066.69
2023-03-29T14:49:19.814Z,99135.28
2023-03-29T14:51:48.186Z,99181.50
2023-03-29T14:54:27.024Z,99165.56
2023-03-29T14:56:54.824Z,99191.91
2023-03-29T14:59:42.860Z,99150.88
2023-03-29T15:02:33.591Z,99109.19
2023-03-29T15:05:05.589Z,99089.69
2023-03-29T15:07:37.203Z,99115.41
2023-03-29T15:10:06.633Z,99056.19
2023-03-29T15:12:34.472Z,99024.78
2023-03-29T15:15:02.590Z,99007.19
2023-03-29T15:17:50.401Z,99073.06
2023-03-29T15:20:34.056Z,99035.13
2023-03-29T15:23:19.603Z,99039.72
2023-03-29T15:25:51.478Z,99033.75
2023-03-29T15:28:33.894Z,99012.34
2023-03-29T15:31:12.344Z,99039.09
2023-03-29T15:33:41.861Z,99001.56
2023-03-29T15:36:12.373Z,99000.91
2023-03-29T15:38:44.485Z,99005.31
2023-03-29T15:41:14.737Z,98943.69
2023-03-29T15:43:42.842Z,98906.59
2023-03-29T15:46:14.059Z,98915.09
2023-03-29T15:48:42.161Z,98933.53
2023-03-29T15:51:13.149Z,98910.50
2023-03-29T15:53:42.159Z,98839.47
2023-03-29T15:56:12.370Z,98892.53
2023-03-29T15:58:39.853Z,98884.94
2023-03-29T16:01:33.678Z,98845.91
2023-03-29T16:04:19.818Z,98832.75
2023-03-29T16:06:50.602Z,98798.81
2023-03-29T16:09:18.178Z,98800.25
2023-03-29T16:11:46.286Z,98779.22
2023-03-29T16:14:24.479Z,98772.31
2023-03-29T16:16:52.930Z,98786.06
2023-03-29T16:19:20.658Z,98781.72
2023-03-29T16:21:48.596Z,98796.22
2023-03-29T16:24:28.452Z,98804.88
2023-03-29T16:26:57.479Z,98786.78
2023-03-29T16:29:25.698Z,98771.16
2023-03-29T16:31:53.547Z,98782.31
2023-03-29T16:34:22.796Z,98770.88
2023-03-29T16:36:50.786Z,98778.19
2023-03-29T16:39:18.431Z,98811.28
2023-03-29T16:41:48.904Z,98812.22
2023-03-29T16:44:21.040Z,98818.69
2023-03-29T16:46:49.163Z,98820.53
2023-03-29T16:49:19.638Z,98838.66
2023-03-29T16:51:48.171Z,98860.03
2023-03-29T16:54:17.433Z,98867.09
2023-03-29T16:56:44.976Z,98887.78
2023-03-29T16:59:12.568Z,98888.03
2023-03-29T17:01:40.621Z,98916.59
2023-03-29T17:04:08.549Z,98904.97
2023-03-29T17:06:36.076Z,98912.44
2023-03-29T17:09:05.049Z,98908.03
2023-03-29T17:11:32.769Z,98902.28
2023-03-29T17:14:00.412Z,98914.13
2023-03-29T17:16:29.215Z,98914.84
2023-03-29T17:19:00.527Z,98945.22
2023-03-29T17:21:29.297Z,98959.53
2023-03-29T17:23:56.757Z,98973.19
2023-03-29T17:26:24.339Z,98980.44
2023-03-29T17:28:51.705Z,98984.91
2023-03-29T17:31:19.689Z,98991.91
2023-03-29T17:33:47.590Z,98995.00
2023-03-29T17:36:15.204Z,98999.75
2023-03-29T17:38:43.079Z,98997.16
2023-03-29T17:41:11.343Z,99007.56
2023-03-29T17:43:39.131Z,99000.72
2023-03-29T17:46:06.894Z,99008.06
2023-03-29T17:48:34.396Z,99033.22
2023-03-29T17:51:02.233Z,99042.09
2023-03-29T17:53:33.239Z,99032.47
2023-03-29T17:56:00.843Z,99044.16
2023-03-29T17:58:28.754Z,99046.75
2023-03-29T18:00:56.926Z,99045.06
2023-03-29T18:03:24.522Z,99053.09
2023-03-29T18:05:51.958Z,99075.28
2023-03-29T18:08:19.419Z,99071.97
2023-03-29T18:10:46.832Z,99076.28
2023-03-29T18:13:14.936Z,99071.69
2023-03-29T18:15:42.379Z,99058.75
2023-03-29T18:18:09.937Z,99073.91
2023-03-29T18:20:37.323Z,99087.47
2023-03-29T18:23:04.702Z,99096.19
2023-03-29T18:25:32.349Z,99106.00
2023-03-29T18:28:00.945Z,99123.94
2023-03-29T18:30:28.409Z,99118.75
2023-03-29T18:32:55.966Z,99114.13
2023-03-29T18:35:23.419Z,99097.44
2023-03-29T18:37:52.398Z,99110.75
2023-03-29T18:40:26.972Z,99118.91
2023-03-29T18:42:54.820Z,99127.22
2023-03-29T18:45:22.513Z,99145.78
2023-03-29T18:47:50.834Z,99161.00
2023-03-29T18:50:18.308Z,99157.59
2023-03-29T18:52:45.857Z,99157.72
2023-03-29T18:55:13.267Z,99162.41
2023-03-29T18:57:40.967Z,99171.13
2023-03-29T19:00:14.844Z,99168.38
2023-03-29T19:02:42.619Z,99166.53
2023-03-29T19:07:38.870Z,99184.47
2023-03-29T19:10:08.514Z,99179.19
2023-03-29T19:12:36.078Z,99171.44
2023-03-29T19:15:03.587Z,99175.00
2023-03-29T19:17:30.964Z,99169.59
2023-03-29T19:19:58.421Z,99153.69
2023-03-29T19:22:26.635Z,99156.59
2023-03-29T19:24:54.017Z,99169.97
2023-03-29T19:27:21.408Z,99182.47
2023-03-29T19:29:49.193Z,99188.63
2023-03-29T19:32:16.627Z,99199.22
2023-03-29T19:34:43.979Z,99209.88
2023-03-29T19:37:11.707Z,99208.97
2023-03-29T19:39:41.075Z,99204.66
2023-03-29T19:42:08.698Z,99212.66
2023-03-29T19:44:38.382Z,99220.56
2023-03-29T19:47:08.468Z,99225.00
2023-03-29T19:49:38.657Z,99228.63
2023-03-29T19:52:06.528Z,99231.44
2023-03-29T19:54:33.872Z,99222.63
2023-03-29T19:57:01.916Z,99224.47
2023-03-29T19:59:31.134Z,99238.44
2023-03-29T20:01:59.389Z,99249.91
2023-03-29T20:04:28.899Z,99239.47
2023-03-29T20:06:57.684Z,99258.09
2023-03-29T20:09:25.082Z,99257.16
2023-03-29T20:11:52.414Z,99256.16
2023-03-29T20:14:19.903Z,99262.47
2023-03-29T20:16:49.645Z,99270.53
2023-03-29T20:19:17.937Z,99273.28
2023-03-29T20:21:45.150Z,99281.22
2023-03-29T20:24:12.606Z,99271.50
2023-03-29T20:26:39.986Z,99271.34
2023-03-29T20:29:07.406Z,99266.88
2023-03-29T20:31:34.864Z,99269.63
2023-03-29T20:34:02.329Z,99266.13
2023-03-29T20:36:30.786Z,99276.78
2023-03-29T20:38:59.427Z,99271.31
2023-03-29T20:41:27.157Z,99267.94
2023-03-29T20:44:00.031Z,99270.50
2023-03-29T20:46:37.839Z,99261.56
2023-03-29T20:49:07.439Z,99266.00
2023-03-29T20:51:34.800Z,99264.22
2023-03-29T20:54:05.188Z,99267.91
2023-03-29T20:56:42.289Z,99273.28
2023-03-29T20:59:10.922Z,99273.25
2023-03-29T21:01:41.013Z,99277.75
2023-03-29T21:04:09.254Z,99278.66
2023-03-29T21:06:39.905Z,99279.59
2023-03-29T21:09:07.402Z,99284.03
2023-03-29T21:11:34.773Z,99297.41
2023-03-29T21:14:02.692Z,99290.34
2023-03-29T21:16:31.204Z,99287.72
2023-03-29T21:18:58.752Z,99301.88
2023-03-29T21:21:26.321Z,99293.97
2023-03-29T21:23:53.699Z,99299.28
2023-03-29T21:26:22.773Z,99303.75
2023-03-29T21:28:50.433Z,99299.38
2023-03-29T21:31:18.169Z,99306.41
2023-03-29T21:33:45.782Z,99315.31
2023-03-29T21:36:13.281Z,99306.59
2023-03-29T21:38:40.885Z,99322.50
2023-03-29T21:41:12.106Z,99318.13
2023-03-29T21:43:39.972Z,99341.03
2023-03-29T21:46:07.481Z,99347.22
2023-03-29T21:48:34.494Z,99352.53
2023-03-29T21:51:01.718Z,99355.16
2023-03-29T21:53:29.159Z,99349.03
2023-03-29T21:55:56.648Z,99370.22
2023-03-29T21:58:24.173Z,99371.03
2023-03-29T22:00:51.637Z,99370.16
2023-03-29T22:03:19.309Z,99381.69
2023-03-29T22:06:00.727Z,99376.41
2023-03-29T22:08:28.687Z,99392.34
2023-03-29T22:10:57.130Z,99397.59
2023-03-29T22:13:26.983Z,99417.84
2023-03-29T22:16:03.758Z,99420.44
2023-03-29T22:18:46.957Z,99423.84
2023-03-29T22:21:22.739Z,99429.88
2023-03-29T22:23:53.931Z,99429.06
2023-03-29T22:26:27.671Z,99420.06
2023-03-29T22:28:55.713Z,99402.34
2023-03-29T22:31:25.083Z,99392.56
2023-03-29T22:33:52.771Z,99381.91
2023-03-29T22:36:31.329Z,99368.50
2023-03-29T22:38:59.371Z,99353.22
2023-03-29T22:41:28.157Z,99345.28
2023-03-29T22:43:58.205Z,99334.50
2023-03-29T22:46:26.448Z,99321.84
2023-03-29T22:48:53.875Z,99298.41
2023-03-29T22:51:21.785Z,99270.22
2023-03-29T22:53:49.548Z,99274.41
2023-03-29T22:56:17.804Z,99229.25
2023-03-29T22:58:45.916Z,99213.88
2023-03-29T23:01:13.729Z,99220.19
2023-03-29T23:03:41.818Z,99225.63
2023-03-29T23:06:09.531Z,99207.72
2023-03-29T23:08:37.241Z,99196.09
2023-03-29T23:11:05.505Z,99203.72
2023-03-29T23:13:33.719Z,99204.91
2023-03-29T23:16:03.596Z,99216.72
2023-03-29T23:18:34.685Z,99217.91
2023-03-29T23:21:05.087Z,99224.88
2023-03-29T23:23:32.857Z,99191.69
2023-03-29T23:26:00.700Z,99217.41
2023-03-29T23:28:30.647Z,99210.16
2023-03-29T23:31:09.888Z,99236.75
2023-03-29T23:33:41.136Z,99226.09
2023-03-29T23:36:12.690Z,99214.47
2023-03-29T23:38:42.152Z,99215.09
2023-03-29T23:41:12.734Z,99231.25
2023-03-29T23:43:43.113Z,99135.94
2023-03-29T23:46:16.387Z,99122.63
2023-03-29T23:48:49.264Z,99143.97
2023-03-29T23:51:23.073Z,99133.72
2023-03-29T23:53:51.207Z,99089.44
2023-03-29T23:56:18.672Z,99056.34
2023-03-29T23:58:46.124Z,99038.53
